createdAt,value
2023-01-08T00:02:45.395Z,95743.13
2023-01-08T00:05:47.016Z,95743.38
2023-01-08T00:08:48.912Z,95740.63
2023-01-08T00:11:50.468Z,95730.34
2023-01-08T00:14:52.014Z,95739.88
2023-01-08T00:17:53.549Z,95738.34
2023-01-08T00:20:55.088Z,95732.34
2023-01-08T00:23:56.731Z,95731.41
2023-01-08T00:26:58.247Z,95740.38
2023-01-08T00:29:59.862Z,95740.38
2023-01-08T00:33:07.154Z,95724.31
2023-01-08T00:36:14.470Z,95745.63
2023-01-08T00:39:16.295Z,95731.63
2023-01-08T00:42:20.359Z,95737.72
2023-01-08T00:45:22.011Z,95726.00
2023-01-08T00:48:28.924Z,95739.53
2023-01-08T00:51:33.665Z,95728.88
2023-01-08T00:54:39.881Z,95716.66
2023-01-08T00:57:44.265Z,95711.16
2023-01-08T01:00:48.686Z,95712.72
2023-01-08T01:03:50.548Z,95707.47
2023-01-08T01:06:56.592Z,95710.09
2023-01-08T01:09:58.254Z,95696.19
2023-01-08T01:12:59.788Z,95703.97
2023-01-08T01:16:03.791Z,95693.44
2023-01-08T01:19:19.211Z,95690.94
2023-01-08T01:22:20.739Z,95686.63
2023-01-08T01:25:24.878Z,95686.88
2023-01-08T01:28:26.427Z,95684.97
2023-01-08T01:31:30.851Z,95695.50
2023-01-08T01:34:32.489Z,95684.34
2023-01-08T01:37:34.087Z,95694.03
2023-01-08T01:40:35.830Z,95699.56
2023-01-08T01:43:43.042Z,95694.50
2023-01-08T01:46:44.764Z,95692.00
2023-01-08T01:49:56.400Z,95686.13
2023-01-08T01:53:04.313Z,95687.19
2023-01-08T01:56:06.319Z,95671.63
2023-01-08T01:59:08.264Z,95676.78
2023-01-08T02:02:10.107Z,95664.72
2023-01-08T02:05:11.921Z,95664.84
2023-01-08T02:08:23.425Z,95666.16
2023-01-08T02:11:47.490Z,95665.06
2023-01-08T02:15:04.765Z,95660.88
2023-01-08T02:18:18.248Z,95644.59
2023-01-08T02:21:36.372Z,95659.53
2023-01-08T02:24:54.754Z,95646.63
2023-01-08T02:28:00.642Z,95639.69
2023-01-08T02:31:02.890Z,95639.69
2023-01-08T02:34:04.721Z,95631.06
2023-01-08T02:37:06.342Z,95625.09
2023-01-08T02:40:21.523Z,95633.69
2023-01-08T02:43:44.540Z,95629.38
2023-01-08T02:46:49.431Z,95628.44
2023-01-08T02:49:59.137Z,95625.22
2023-01-08T02:53:08.061Z,95628.44
2023-01-08T02:56:16.998Z,95619.84
2023-01-08T02:59:20.694Z,95621.50
2023-01-08T03:02:22.756Z,95630.22
2023-01-08T03:05:27.551Z,95638.13
2023-01-08T03:08:30.120Z,95627.84
2023-01-08T03:11:47.530Z,95629.63
2023-01-08T03:15:01.636Z,95626.16
2023-01-08T03:18:10.280Z,95605.59
2023-01-08T03:21:13.473Z,95604.50
2023-01-08T03:24:20.557Z,95603.81
2023-01-08T03:27:26.693Z,95601.88
2023-01-08T03:30:30.535Z,95600.22
2023-01-08T03:33:33.001Z,95600.22
2023-01-08T03:36:36.653Z,95605.59
2023-01-08T03:39:49.677Z,95597.81
2023-01-08T03:42:51.431Z,95593.41
2023-01-08T03:46:00.067Z,95571.63
2023-01-08T03:49:04.848Z,95564.59
2023-01-08T03:52:06.499Z,95555.25
2023-01-08T03:55:08.456Z,95554.06
2023-01-08T03:58:09.990Z,95558.38
2023-01-08T04:01:11.646Z,95539.25
2023-01-08T04:04:13.374Z,95532.19
2023-01-08T04:07:14.955Z,95529.34
2023-01-08T04:10:16.653Z,95517.03
2023-01-08T04:13:18.194Z,95522.88
2023-01-08T04:16:19.779Z,95515.22
2023-01-08T04:19:21.320Z,95522.03
2023-01-08T04:22:22.886Z,95515.81
2023-01-08T04:25:24.418Z,95518.34
2023-01-08T04:28:25.915Z,95520.13
2023-01-08T04:31:27.536Z,95510.81
2023-01-08T04:34:29.203Z,95522.75
2023-01-08T04:37:30.757Z,95520.22
2023-01-08T04:40:33.934Z,95517.50
2023-01-08T04:43:35.518Z,95520.13
2023-01-08T04:46:37.798Z,95530.66
2023-01-08T04:49:39.349Z,95525.38
2023-01-08T04:52:40.892Z,95528.97
2023-01-08T04:55:42.643Z,95523.97
2023-01-08T04:58:44.194Z,95528.25
2023-01-08T05:01:45.783Z,95523.97
2023-01-08T05:04:48.140Z,95515.94
2023-01-08T05:07:49.665Z,95493.81
2023-01-08T05:10:51.193Z,95516.19
2023-01-08T05:13:53.187Z,95528.50
2023-01-08T05:16:54.691Z,95525.88
2023-01-08T05:19:56.223Z,95530.41
2023-01-08T05:22:58.552Z,95521.66
2023-01-08T05:26:02.116Z,95515.56
2023-01-08T05:29:03.645Z,95524.28
2023-01-08T05:32:13.816Z,95521.66
2023-01-08T05:35:15.439Z,95518.19
2023-01-08T05:38:17.017Z,95523.22
2023-01-08T05:41:18.566Z,95518.19
2023-01-08T05:44:20.112Z,95519.66
2023-01-08T05:47:22.366Z,95524.06
2023-01-08T05:50:23.933Z,95522.03
2023-01-08T05:53:25.514Z,95529.91
2023-01-08T05:56:27.144Z,95525.59
2023-01-08T05:59:28.699Z,95536.75
2023-01-08T06:02:30.309Z,95540.22
2023-01-08T06:05:33.160Z,95539.25
2023-01-08T06:08:35.149Z,95541.75
2023-01-08T06:11:37.129Z,95529.44
2023-01-08T06:14:38.665Z,95517.97
2023-01-08T06:17:40.383Z,95520.25
2023-01-08T06:20:41.965Z,95520.09
2023-01-08T06:23:43.943Z,95513.19
2023-01-08T06:26:45.489Z,95508.53
2023-01-08T06:29:48.185Z,95514.63
2023-01-08T06:32:49.728Z,95524.09
2023-01-08T06:35:51.296Z,95512.94
2023-01-08T06:38:53.359Z,95531.72
2023-01-08T06:41:55.700Z,95525.38
2023-01-08T06:44:57.691Z,95517.38
2023-01-08T06:48:03.681Z,95504.22
2023-01-08T06:51:05.528Z,95509.34
2023-01-08T06:54:07.563Z,95517.22
2023-01-08T06:57:09.108Z,95510.78
2023-01-08T07:00:11.098Z,95514.00
2023-01-08T07:03:13.366Z,95521.78
2023-01-08T07:06:17.197Z,95540.66
2023-01-08T07:09:18.752Z,95538.66
2023-01-08T07:12:20.293Z,95524.25
2023-01-08T07:15:22.294Z,95517.22
2023-01-08T07:18:24.480Z,95512.56
2023-01-08T07:21:26.543Z,95513.13
2023-01-08T07:24:28.360Z,95522.59
2023-01-08T07:27:29.896Z,95520.56
2023-01-08T07:30:31.959Z,95516.00
2023-01-08T07:33:33.899Z,95512.16
2023-01-08T07:36:36.063Z,95507.75
2023-01-08T07:39:38.189Z,95504.00
2023-01-08T07:42:40.128Z,95501.97
2023-01-08T07:45:52.376Z,95509.03
2023-01-08T07:48:58.068Z,95510.94
2023-01-08T07:52:00.055Z,95517.41
2023-01-08T07:55:01.615Z,95525.91
2023-01-08T07:58:15.992Z,95519.78
2023-01-08T08:01:17.778Z,95536.88
2023-01-08T08:04:19.374Z,95530.66
2023-01-08T08:07:21.290Z,95523.22
2023-01-08T08:10:22.908Z,95513.53
2023-01-08T08:13:24.459Z,95508.00
2023-01-08T08:16:26.500Z,95506.66
2023-01-08T08:19:28.423Z,95513.34
2023-01-08T08:22:30.504Z,95509.75
2023-01-08T08:25:32.520Z,95500.78
2023-01-08T08:28:34.944Z,95492.88
2023-01-08T08:31:36.607Z,95494.03
2023-01-08T08:34:38.223Z,95492.25
2023-01-08T08:37:40.318Z,95488.97
2023-01-08T08:40:42.645Z,95491.22
2023-01-08T08:43:44.231Z,95502.91
2023-01-08T08:46:45.803Z,95491.53
2023-01-08T08:49:47.351Z,95493.28
2023-01-08T08:52:49.054Z,95499.97
2023-01-08T08:55:50.755Z,95502.19
2023-01-08T08:58:53.215Z,95504.19
2023-01-08T09:01:55.370Z,95502.03
2023-01-08T09:04:57.171Z,95494.56
2023-01-08T09:07:58.817Z,95489.84
2023-01-08T09:11:02.394Z,95500.84
2023-01-08T09:14:04.574Z,95492.41
2023-01-08T09:17:06.213Z,95483.91
2023-01-08T09:20:08.646Z,95502.19
2023-01-08T09:23:10.769Z,95508.44
2023-01-08T09:26:13.082Z,95493.91
2023-01-08T09:29:14.678Z,95502.97
2023-01-08T09:32:17.384Z,95496.31
2023-01-08T09:35:19.085Z,95498.19
2023-01-08T09:38:20.933Z,95493.88
2023-01-08T09:41:36.900Z,95490.84
2023-01-08T09:44:43.532Z,95495.88
2023-01-08T09:47:45.132Z,95480.19
2023-01-08T09:50:49.072Z,95482.88
2023-01-08T09:53:55.756Z,95480.22
2023-01-08T09:56:59.244Z,95475.78
2023-01-08T10:00:01.505Z,95461.44
2023-01-08T10:03:04.105Z,95454.50
2023-01-08T10:06:15.279Z,95448.25
2023-01-08T10:09:19.843Z,95447.50
2023-01-08T10:12:29.694Z,95440.41
2023-01-08T10:15:31.383Z,95451.25
2023-01-08T10:18:35.214Z,95447.75
2023-01-08T10:21:40.997Z,95434.78
2023-01-08T10:24:43.351Z,95437.81
2023-01-08T10:27:47.825Z,95449.78
2023-01-08T10:30:52.507Z,95446.84
2023-01-08T10:33:54.543Z,95472.47
2023-01-08T10:36:56.705Z,95475.75
2023-01-08T10:40:25.346Z,95487.59
2023-01-08T10:43:37.423Z,95464.31
2023-01-08T10:46:50.650Z,95454.25
2023-01-08T10:49:53.007Z,95439.75
2023-01-08T10:53:01.117Z,95437.75
2023-01-08T10:56:04.947Z,95429.53
2023-01-08T10:59:06.481Z,95438.19
2023-01-08T11:02:21.017Z,95443.34
2023-01-08T11:05:31.384Z,95446.06
2023-01-08T11:08:34.615Z,95440.34
2023-01-08T11:11:38.487Z,95444.06
2023-01-08T11:14:40.524Z,95433.84
2023-01-08T11:17:42.531Z,95435.06
2023-01-08T11:20:46.061Z,95418.72
2023-01-08T11:23:48.286Z,95402.38
2023-01-08T11:27:07.725Z,95405.25
2023-01-08T11:30:18.163Z,95397.66
2023-01-08T11:33:29.476Z,95392.44
2023-01-08T11:36:39.433Z,95394.09
2023-01-08T11:39:41.447Z,95394.88
2023-01-08T11:43:13.948Z,95393.28
2023-01-08T11:46:43.750Z,95386.53
2023-01-08T11:49:48.332Z,95379.78
2023-01-08T11:53:21.486Z,95382.16
2023-01-08T11:56:38.521Z,95373.03
2023-01-08T12:00:01.895Z,95369.25
2023-01-08T12:03:15.036Z,95366.31
2023-01-08T12:06:40.210Z,95370.44
2023-01-08T12:09:50.217Z,95340.97
2023-01-08T12:13:00.691Z,95343.28
2023-01-08T12:16:25.617Z,95340.34
2023-01-08T12:19:50.712Z,95325.94
2023-01-08T12:22:59.771Z,95305.34
2023-01-08T12:26:17.625Z,95310.38
2023-01-08T12:29:43.154Z,95298.44
2023-01-08T12:33:01.553Z,95285.00
2023-01-08T12:36:11.541Z,95279.84
2023-01-08T12:39:22.498Z,95279.25
2023-01-08T12:42:29.534Z,95281.56
2023-01-08T12:45:36.708Z,95285.72
2023-01-08T12:48:39.625Z,95280.09
2023-01-08T12:51:53.824Z,95276.28
2023-01-08T12:55:37.600Z,95266.50
2023-01-08T12:58:50.927Z,95266.09
2023-01-08T13:01:52.624Z,95259.66
2023-01-08T13:04:54.626Z,95260.00
2023-01-08T13:08:34.645Z,95255.84
2023-01-08T13:11:38.512Z,95263.13
2023-01-08T13:14:48.068Z,95266.31
2023-01-08T13:17:50.702Z,95257.19
2023-01-08T13:21:00.965Z,95250.88
2023-01-08T13:24:29.480Z,95247.41
2023-01-08T13:27:31.054Z,95243.91
2023-01-08T13:30:34.546Z,95225.63
2023-01-08T13:33:36.285Z,95233.44
2023-01-08T13:36:37.913Z,95244.91
2023-01-08T13:39:39.605Z,95234.28
2023-01-08T13:42:41.483Z,95240.44
2023-01-08T13:45:54.037Z,95234.28
2023-01-08T13:49:09.694Z,95231.78
2023-01-08T13:52:41.482Z,95238.09
2023-01-08T13:55:58.783Z,95222.97
2023-01-08T13:59:00.394Z,95228.28
2023-01-08T14:02:02.452Z,95223.97
2023-01-08T14:05:18.730Z,95242.56
2023-01-08T14:08:24.827Z,95247.03
2023-01-08T14:11:34.651Z,95237.41
2023-01-08T14:14:39.053Z,95221.28
2023-01-08T14:17:44.054Z,95224.63
2023-01-08T14:20:55.866Z,95238.91
2023-01-08T14:23:58.005Z,95219.47
2023-01-08T14:27:00.535Z,95253.16
2023-01-08T14:30:02.246Z,95250.34
2023-01-08T14:33:04.489Z,95246.53
2023-01-08T14:36:07.941Z,95241.22
2023-01-08T14:39:39.681Z,95245.03
2023-01-08T14:42:46.646Z,95242.53
2023-01-08T14:45:53.568Z,95219.63
2023-01-08T14:48:56.985Z,95240.22
2023-01-08T14:52:00.171Z,95230.72
2023-01-08T14:55:03.830Z,95232.56
2023-01-08T14:58:15.225Z,95237.22
2023-01-08T15:01:22.350Z,95242.53
2023-01-08T15:04:24.562Z,95237.38
2023-01-08T15:07:29.934Z,95217.78
2023-01-08T15:10:33.239Z,95223.41
2023-01-08T15:13:38.217Z,95217.28
2023-01-08T15:16:45.021Z,95207.78
2023-01-08T15:19:51.204Z,95218.25
2023-01-08T15:22:52.916Z,95199.03
2023-01-08T15:25:55.641Z,95180.75
2023-01-08T15:29:02.038Z,95178.25
2023-01-08T15:32:12.236Z,95176.59
2023-01-08T15:35:16.471Z,95168.81
2023-01-08T15:38:21.109Z,95158.34
2023-01-08T15:41:42.864Z,95157.69
2023-01-08T15:44:44.405Z,95148.19
2023-01-08T15:47:46.171Z,95139.06
2023-01-08T15:50:47.895Z,95136.56
2023-01-08T15:53:49.516Z,95134.25
2023-01-08T15:56:51.290Z,95130.25
2023-01-08T15:59:52.997Z,95129.44
2023-01-08T16:02:55.274Z,95128.94
2023-01-08T16:05:57.252Z,95122.28
2023-01-08T16:09:00.401Z,95123.28
2023-01-08T16:12:02.202Z,95117.31
2023-01-08T16:15:04.534Z,95114.97
2023-01-08T16:18:06.036Z,95112.13
2023-01-08T16:21:08.873Z,95106.00
2023-01-08T16:24:13.583Z,95097.19
2023-01-08T16:27:15.112Z,95090.41
2023-01-08T16:30:17.137Z,95081.09
2023-01-08T16:33:18.638Z,95075.81
2023-01-08T16:36:20.260Z,95078.59
2023-01-08T16:39:22.409Z,95068.34
2023-01-08T16:42:24.017Z,95066.00
2023-01-08T16:45:25.652Z,95052.25
2023-01-08T16:48:28.726Z,95051.53
2023-01-08T16:51:31.102Z,95036.13
2023-01-08T16:54:33.488Z,95034.63
2023-01-08T16:57:35.184Z,95030.63
2023-01-08T17:00:38.759Z,95034.59
2023-01-08T17:03:40.428Z,95036.75
2023-01-08T17:06:42.042Z,95030.25
2023-01-08T17:09:43.653Z,95028.91
2023-01-08T17:12:45.281Z,95018.81
2023-01-08T17:15:46.964Z,95010.19
2023-01-08T17:18:48.564Z,95009.34
2023-01-08T17:21:50.569Z,94999.56
2023-01-08T17:24:52.152Z,95002.38
2023-01-08T17:27:54.184Z,94996.41
2023-01-08T17:31:04.078Z,94979.03
2023-01-08T17:34:12.472Z,94984.31
2023-01-08T17:37:14.060Z,94995.22
2023-01-08T17:40:15.721Z,94984.13
2023-01-08T17:43:17.292Z,94976.19
2023-01-08T17:46:18.854Z,94979.81
2023-01-08T17:49:20.437Z,94980.66
2023-01-08T17:52:24.394Z,94972.19
2023-01-08T17:55:26.526Z,94979.81
2023-01-08T17:58:28.075Z,94970.22
2023-01-08T18:01:30.350Z,94956.63
2023-01-08T18:04:33.136Z,94960.94
2023-01-08T18:07:35.191Z,94958.44
2023-01-08T18:10:37.599Z,94949.97
2023-01-08T18:13:39.268Z,94946.00
2023-01-08T18:16:45.455Z,94957.59
2023-01-08T18:19:48.663Z,94951.63
2023-01-08T18:22:51.217Z,94946.84
2023-01-08T18:25:52.820Z,94945.34
2023-01-08T18:28:54.497Z,94941.72
2023-01-08T18:31:56.054Z,94940.88
2023-01-08T18:34:57.744Z,94932.09
2023-01-08T18:37:59.329Z,94933.91
2023-01-08T18:41:00.920Z,94927.63
2023-01-08T18:44:04.522Z,94924.16
2023-01-08T18:47:06.206Z,94925.00
2023-01-08T18:50:08.870Z,94921.81
2023-01-08T18:53:10.493Z,94934.06
2023-01-08T18:56:26.754Z,94920.19
2023-01-08T18:59:28.290Z,94908.56
2023-01-08T19:02:33.536Z,94905.28
2023-01-08T19:05:44.547Z,94899.97
2023-01-08T19:08:46.329Z,94899.78
2023-01-08T19:11:47.998Z,94891.19
2023-01-08T19:14:49.587Z,94882.41
2023-01-08T19:17:52.250Z,94878.94
2023-01-08T19:20:53.853Z,94859.56
2023-01-08T19:23:55.440Z,94852.75
2023-01-08T19:26:56.973Z,94851.09
2023-01-08T19:29:58.616Z,94845.00
2023-01-08T19:33:00.516Z,94842.34
2023-01-08T19:36:05.667Z,94841.03
2023-01-08T19:39:07.618Z,94826.13
2023-01-08T19:42:29.560Z,94820.66
2023-01-08T19:45:31.117Z,94813.53
2023-01-08T19:48:33.297Z,94801.13
2023-01-08T19:51:34.953Z,94796.97
2023-01-08T19:54:37.773Z,94786.53
2023-01-08T19:57:39.278Z,94778.59
2023-01-08T20:00:41.041Z,94771.81
2023-01-08T20:03:43.261Z,94772.81
2023-01-08T20:06:44.859Z,94769.31
2023-01-08T20:09:46.519Z,94768.81
2023-01-08T20:12:48.041Z,94768.66
2023-01-08T20:15:57.466Z,94778.56
2023-01-08T20:19:04.482Z,94767.50
2023-01-08T20:22:06.104Z,94760.53
2023-01-08T20:25:08.253Z,94769.47
2023-01-08T20:28:09.929Z,94752.28
2023-01-08T20:31:14.216Z,94747.97
2023-01-08T20:34:16.963Z,94755.06
2023-01-08T20:37:18.521Z,94753.41
2023-01-08T20:40:20.191Z,94750.94
2023-01-08T20:43:21.793Z,94758.88
2023-01-08T20:46:28.429Z,94756.41
2023-01-08T20:49:30.089Z,94769.97
2023-01-08T20:52:31.728Z,94751.59
2023-01-08T20:55:36.321Z,94749.28
2023-01-08T20:58:40.161Z,94738.84
2023-01-08T21:01:41.893Z,94734.84
2023-01-08T21:04:43.827Z,94740.50
2023-01-08T21:07:45.464Z,94745.13
2023-01-08T21:10:56.931Z,94743.31
2023-01-08T21:13:58.886Z,94734.38
2023-01-08T21:17:00.383Z,94744.31
2023-01-08T21:20:02.041Z,94735.53
2023-01-08T21:23:03.582Z,94744.31
2023-01-08T21:26:09.862Z,94740.16
2023-01-08T21:29:11.460Z,94713.34
2023-01-08T21:32:13.040Z,94699.28
2023-01-08T21:35:14.669Z,94691.34
2023-01-08T21:38:16.187Z,94697.31
2023-01-08T21:41:41.810Z,94699.97
2023-01-08T21:45:02.001Z,94690.34
2023-01-08T21:48:03.679Z,94690.34
2023-01-08T21:51:05.475Z,94679.75
2023-01-08T21:54:07.039Z,94678.09
2023-01-08T21:57:09.673Z,94680.06
2023-01-08T22:00:12.949Z,94673.97
2023-01-08T22:03:14.499Z,94678.44
2023-01-08T22:06:16.094Z,94676.78
2023-01-08T22:09:17.798Z,94667.88
2023-01-08T22:12:20.382Z,94659.09
2023-01-08T22:15:22.020Z,94646.03
2023-01-08T22:18:23.548Z,94641.88
2023-01-08T22:21:25.222Z,94636.09
2023-01-08T22:24:26.819Z,94649.16
2023-01-08T22:27:28.417Z,94635.28
2023-01-08T22:30:29.966Z,94634.25
2023-01-08T22:33:31.512Z,94627.16
2023-01-08T22:36:33.058Z,94621.03
2023-01-08T22:39:34.621Z,94611.25
2023-01-08T22:42:36.132Z,94616.75
2023-01-08T22:45:37.973Z,94617.72
2023-01-08T22:48:39.785Z,94613.44
2023-01-08T22:51:44.974Z,94612.75
2023-01-08T22:54:46.556Z,94603.50
2023-01-08T22:57:48.413Z,94597.22
2023-01-08T23:00:49.997Z,94585.81
2023-01-08T23:03:54.367Z,94595.56
2023-01-08T23:06:55.902Z,94589.59
2023-01-08T23:09:57.498Z,94587.94
2023-01-08T23:12:59.170Z,94585.66
2023-01-08T23:16:01.136Z,94590.75
2023-01-08T23:19:02.750Z,94586.63
2023-01-08T23:22:04.531Z,94601.69
2023-01-08T23:25:06.674Z,94604.50
2023-01-08T23:28:08.199Z,94596.22
2023-01-08T23:31:16.311Z,94601.19
2023-01-08T23:34:17.919Z,94597.88
2023-01-08T23:37:19.819Z,94602.34
2023-01-08T23:40:21.447Z,94605.97
2023-01-08T23:43:23.111Z,94606.97
2023-01-08T23:46:24.636Z,94618.53
2023-01-08T23:49:26.219Z,94608.94
2023-01-08T23:52:27.793Z,94603.50
2023-01-08T23:55:29.401Z,94591.09
2023-01-08T23:58:30.978Z,94587.31
